Portada
METAR-TAF:

METAR-TAF

Aeroports :

Sheboygan County Memorial Airport

Sheboygan, Wisconsin, Estats Units d'Amèrica

latitud: 43-46-35N, longitud: 087-50-59W, altitud: 228 m

Observació

L'informe es va fer fa 22 minuts, a les 12:53 UTC
Vent 5 kt del Est/Nord-Est
Temperatura 16°C
Humitat 88%
Pressió 1013 hPa
Visibilitat: 16.1 km
Cel cobert a una alçada de 1500 ft

METAR: KSBM 201253Z AUTO 07005KT 10SM OVC015 16/14 A2992 RMK AO2 SLP132 T01610144 TSNO

Hora: 08:15 (13:15 UTC)


TAF: manca

Observacions i pronòstics meteorològics de més de 4000 aeroports (METAR i TAF).

Les estacions disponibles són els punts grocs i vermells al mapa.

Posi el ratolí al punt desitjat per veure el nom de l'estació.

Feu clic per veure les observacions i els pronòstics meteorològics.

Per canviar el mapa: feu clic els botons verds amb una creu de color negre per apropar; al botó verd amb un guió per allunyar la imatge; o en les fletxes verdes per a mapes adjacents.


METAR-TAF: